Time;durP1;ratioP1;P1;durP2;ratioP2;P2;SDS_P1;SDS_P2;PMS_P1;PMS_P2;Temp;Humidity;BMP_temperature;BMP_pressure;BME280_temperature;BME280_humidity;BME280_pressure;Samples;Min_cycle;Max_cycle;Signal;HPM_P1;HPM_P2
2023/03/25 00:01:59;;;;;;;13.88;1.70;;;;;;;9.28;100.00;99956.66;4901496;29;20044;-83
2023/03/25 00:04:26;;;;;;;11.55;1.58;;;;;;;9.22;100.00;99949.03;4887003;29;20043;-82
2023/03/25 00:06:55;;;;;;;9.48;1.20;;;;;;;9.30;100.00;99946.50;4871636;29;20051;-83
2023/03/25 00:09:22;;;;;;;6.53;1.10;;;;;;;9.30;100.00;99952.81;4886956;29;20047;-84
2023/03/25 00:11:51;;;;;;;16.95;1.30;;;;;;;9.23;100.00;99937.09;4902248;29;20032;-84
2023/03/25 00:14:18;;;;;;;10.23;1.52;;;;;;;9.29;100.00;99942.03;4900826;29;20119;-84
2023/03/25 00:16:47;;;;;;;14.13;2.35;;;;;;;9.24;100.00;99926.03;4865610;29;20039;-84
2023/03/25 00:19:15;;;;;;;14.15;1.30;;;;;;;9.29;100.00;99937.41;4900700;29;20036;-84
2023/03/25 00:21:43;;;;;;;12.27;1.73;;;;;;;9.33;100.00;99935.28;4919190;29;20064;-84
2023/03/25 00:24:11;;;;;;;3.70;0.90;;;;;;;9.15;100.00;99922.25;4902409;29;20476;-84
2023/03/25 00:26:41;;;;;;;15.80;1.48;;;;;;;9.20;100.00;99927.31;4919437;29;20444;-84
2023/03/25 00:29:08;;;;;;;11.15;1.67;;;;;;;9.23;100.00;99937.09;4853892;29;20076;-85
2023/03/25 00:31:33;;;;;;;11.85;1.10;;;;;;;9.30;100.00;99941.03;4869643;29;20036;-85
2023/03/25 00:33:59;;;;;;;8.23;1.13;;;;;;;9.35;100.00;99939.59;4886518;29;20044;-85
2023/03/25 00:36:24;;;;;;;11.27;1.70;;;;;;;9.31;100.00;99938.16;4905795;29;20044;-84
2023/03/25 00:38:50;;;;;;;8.70;1.33;;;;;;;9.26;100.00;99925.91;4901854;29;20039;-85
2023/03/25 00:41:24;;;;;;;6.55;0.93;;;;;;;9.35;100.00;99934.16;4870692;29;20036;-85
2023/03/25 00:43:59;;;;;;;9.68;1.13;;;;;;;9.32;100.00;99942.59;4904032;29;20043;-85
2023/03/25 00:46:28;;;;;;;6.53;1.17;;;;;;;9.38;100.00;99939.34;4888214;29;20048;-85
2023/03/25 00:48:54;;;;;;;12.88;1.98;;;;;;;9.33;100.00;99938.88;4890587;29;20040;-85
2023/03/25 00:51:21;;;;;;;7.30;1.33;;;;;;;9.34;100.00;99932.41;4887473;29;20036;-85
2023/03/25 00:53:51;;;;;;;8.98;1.48;;;;;;;9.30;100.00;99928.22;4886201;29;20056;-84
2023/03/25 00:56:17;;;;;;;17.17;1.15;;;;;;;9.41;100.00;99923.66;4902112;29;20063;-84
2023/03/25 00:58:43;;;;;;;5.97;1.20;;;;;;;9.40;100.00;99930.16;4871053;29;20068;-83
2023/03/25 01:01:15;;;;;;;11.60;1.77;;;;;;;9.45;100.00;99939.66;4901490;29;20064;-84
2023/03/25 01:03:42;;;;;;;12.98;1.60;;;;;;;9.30;100.00;99917.31;4918505;29;20511;-84
2023/03/25 01:06:15;;;;;;;13.82;1.40;;;;;;;9.38;100.00;99942.06;4902240;29;20480;-85
2023/03/25 01:08:42;;;;;;;12.63;1.70;;;;;;;9.40;100.00;99913.75;4900169;29;20126;-84
2023/03/25 01:11:17;;;;;;;12.60;1.70;;;;;;;9.39;100.00;99932.00;4886022;29;20080;-85
2023/03/25 01:13:42;;;;;;;7.65;1.95;;;;;;;9.37;100.00;99937.59;4933558;29;20388;-85
2023/03/25 01:16:08;;;;;;;11.43;1.50;;;;;;;9.44;100.00;99937.06;4920702;29;20043;-85
2023/03/25 01:18:37;;;;;;;14.82;1.40;;;;;;;9.35;100.00;99917.75;4881937;29;20492;-84
2023/03/25 01:21:06;;;;;;;12.65;1.35;;;;;;;9.47;100.00;99932.19;4886040;29;20036;-84
2023/03/25 01:23:32;;;;;;;12.38;1.38;;;;;;;9.36;100.00;99930.44;4901079;29;20138;-84
2023/03/25 01:25:59;;;;;;;7.80;1.50;;;;;;;9.40;100.00;99935.63;4900958;29;20099;-83
2023/03/25 01:28:26;;;;;;;16.70;1.58;;;;;;;9.42;100.00;99934.47;4884780;29;20139;-84
2023/03/25 01:30:59;;;;;;;10.45;1.40;;;;;;;9.36;100.00;99924.97;4901128;29;20551;-85
2023/03/25 01:33:24;;;;;;;7.25;1.38;;;;;;;9.29;100.00;99926.50;4888828;29;20040;-84
2023/03/25 01:35:50;;;;;;;12.10;1.35;;;;;;;9.39;100.00;99934.72;4882480;29;20052;-84
2023/03/25 01:38:16;;;;;;;7.00;1.15;;;;;;;9.33;100.00;99930.69;4866117;29;20059;-83
2023/03/25 01:40:44;;;;;;;6.38;1.30;;;;;;;9.29;100.00;99929.22;4918167;29;20050;-83
2023/03/25 01:43:12;;;;;;;10.25;2.25;;;;;;;9.27;100.00;99925.78;4901543;29;20032;-83
2023/03/25 01:45:38;;;;;;;12.45;1.35;;;;;;;9.27;100.00;99931.22;4901859;29;20111;-83
2023/03/25 01:48:14;;;;;;;13.65;1.85;;;;;;;9.29;100.00;99931.94;4885104;29;20048;-83
2023/03/25 01:50:43;;;;;;;6.53;1.38;;;;;;;9.31;100.00;99927.25;4919224;29;20634;-83
2023/03/25 01:53:09;;;;;;;8.10;1.42;;;;;;;9.26;100.00;99921.28;4889343;29;20031;-83
2023/03/25 01:55:36;;;;;;;7.65;1.40;;;;;;;9.23;100.00;99927.06;4913088;29;20040;-83
2023/03/25 01:58:09;;;;;;;6.40;1.23;;;;;;;9.19;100.00;99925.59;4862629;29;20555;-83
2023/03/25 02:00:36;;;;;;;6.45;1.65;;;;;;;9.32;100.00;99928.09;4903546;29;20371;-82
2023/03/25 02:03:02;;;;;;;6.00;1.13;;;;;;;9.25;100.00;99932.34;4902936;29;20031;-82
2023/03/25 02:05:38;;;;;;;6.65;1.13;;;;;;;9.28;100.00;99924.78;4899815;29;20428;-83
2023/03/25 02:08:07;;;;;;;8.95;1.42;;;;;;;9.27;100.00;99922.19;4904588;29;20035;-84
2023/03/25 02:10:36;;;;;;;10.05;1.20;;;;;;;9.24;100.00;99920.56;4904271;29;20028;-83
2023/03/25 02:13:06;;;;;;;10.45;1.33;;;;;;;9.17;100.00;99914.78;4879494;29;20024;-83
2023/03/25 02:15:47;;;;;;;3.80;1.27;;;;;;;9.20;100.00;99916.41;4892455;29;20044;-84
2023/03/25 02:18:38;;;;;;;6.90;1.42;;;;;;;9.20;100.00;99914.53;4917772;29;20036;-84
2023/03/25 02:21:45;;;;;;;5.90;1.27;;;;;;;9.18;100.00;99924.72;4903075;29;20491;-84
2023/03/25 02:24:35;;;;;;;3.58;1.25;;;;;;;9.18;100.00;99918.38;4901878;29;20494;-84
2023/03/25 02:27:27;;;;;;;8.30;1.13;;;;;;;9.15;100.00;99905.00;4901038;29;20044;-84
2023/03/25 02:30:10;;;;;;;4.22;0.98;;;;;;;9.16;100.00;99904.00;4860513;29;20044;-85
2023/03/25 02:32:39;;;;;;;4.78;1.02;;;;;;;9.12;100.00;99919.81;4871981;29;20039;-84
2023/03/25 02:35:22;;;;;;;6.13;1.15;;;;;;;9.16;100.00;99913.06;4902019;29;20036;-85
2023/03/25 02:38:12;;;;;;;3.88;1.00;;;;;;;8.87;100.00;99888.34;4904236;29;20051;-85
2023/03/25 02:40:46;;;;;;;5.30;1.10;;;;;;;9.09;100.00;99911.03;4888354;29;20040;-85
2023/03/25 02:43:19;;;;;;;11.20;1.40;;;;;;;8.98;100.00;99917.41;4925361;29;20028;-85
2023/03/25 02:45:51;;;;;;;;;;;;;;;8.98;100.00;99910.06;4940151;29;20042;-86
2023/03/25 02:48:30;;;;;;;11.43;1.30;;;;;;;8.97;100.00;99902.91;4906646;29;19929;-85
2023/03/25 02:50:58;;;;;;;5.03;0.88;;;;;;;8.90;100.00;99903.56;4905754;29;20500;-85
2023/03/25 02:53:32;;;;;;;7.60;1.00;;;;;;;8.86;100.00;99902.97;4903414;29;20032;-85
2023/03/25 02:56:02;;;;;;;8.90;1.20;;;;;;;8.73;100.00;99884.06;4887963;29;20043;-85
2023/03/25 02:58:29;;;;;;;7.13;1.30;;;;;;;8.80;100.00;99895.31;4887758;29;20028;-85
2023/03/25 03:00:57;;;;;;;9.68;1.45;;;;;;;8.79;100.00;99888.16;4900492;29;20044;-84
2023/03/25 03:03:27;;;;;;;11.00;1.73;;;;;;;8.82;100.00;99901.50;4884202;29;20040;-85
2023/03/25 03:05:57;;;;;;;6.82;1.40;;;;;;;8.69;100.00;99890.81;4869906;29;20028;-84
2023/03/25 03:08:45;;;;;;;6.10;1.70;;;;;;;8.76;100.00;99893.88;4887567;29;20048;-84
2023/03/25 03:11:47;;;;;;;8.18;2.25;;;;;;;8.68;100.00;99900.00;4918687;29;20115;-84
2023/03/25 03:14:40;;;;;;;7.03;1.20;;;;;;;8.68;100.00;99896.41;4868540;29;20484;-84
2023/03/25 03:17:30;;;;;;;11.75;1.85;;;;;;;8.57;100.00;99898.19;4894672;29;20084;-84
2023/03/25 03:20:25;;;;;;;12.02;1.50;;;;;;;8.57;100.00;99898.19;4902384;29;20035;-84
2023/03/25 03:23:19;;;;;;;7.10;1.50;;;;;;;8.57;100.00;99898.19;4902874;29;20384;-83
2023/03/25 03:26:25;;;;;;;14.70;1.65;;;;;;;8.59;100.00;99888.03;4880462;29;20048;-83
2023/03/25 03:28:59;;;;;;;8.20;1.40;;;;;;;8.58;100.00;99891.72;4823422;29;20551;-83
2023/03/25 03:31:35;;;;;;;10.77;1.60;;;;;;;8.61;100.00;99880.56;4897077;29;20031;-83
2023/03/25 03:34:09;;;;;;;14.60;3.50;;;;;;;8.49;100.00;99867.13;4887284;29;20071;-84
2023/03/25 03:36:41;;;;;;;8.45;1.63;;;;;;;8.57;100.00;99891.88;4920321;29;20044;-83
2023/03/25 03:39:18;;;;;;;9.25;1.65;;;;;;;8.58;100.00;99879.97;4887107;29;20135;-82
2023/03/25 03:41:49;;;;;;;4.57;1.20;;;;;;;8.59;100.00;99892.59;4910738;29;20028;-82
2023/03/25 03:44:19;;;;;;;8.70;1.40;;;;;;;8.63;100.00;99899.53;4903342;29;20115;-83
2023/03/25 03:47:09;;;;;;;9.88;1.30;;;;;;;8.43;100.00;99883.00;4902936;29;20028;-83
2023/03/25 03:49:39;;;;;;;5.03;1.05;;;;;;;8.55;100.00;99896.59;4886853;29;20407;-83
2023/03/25 03:52:32;;;;;;;5.68;1.48;;;;;;;8.60;100.00;99897.91;4903127;29;20038;-83
2023/03/25 03:55:09;;;;;;;10.10;1.47;;;;;;;8.61;100.00;99896.06;4918340;29;20112;-83
2023/03/25 03:57:41;;;;;;;17.58;1.83;;;;;;;8.52;100.00;99880.50;4900771;29;20091;-83
2023/03/25 04:00:11;;;;;;;11.05;1.90;;;;;;;8.65;100.00;99895.66;4901241;29;20032;-83
2023/03/25 04:02:42;;;;;;;8.18;1.73;;;;;;;8.48;100.00;99874.44;4902030;29;20111;-82
2023/03/25 04:05:11;;;;;;;7.50;1.63;;;;;;;8.61;100.00;99907.84;4901878;29;20040;-83
2023/03/25 04:08:10;;;;;;;7.57;1.55;;;;;;;8.57;100.00;99897.31;4886246;29;20103;-83
2023/03/25 04:10:39;;;;;;;4.65;1.38;;;;;;;8.48;100.00;99892.66;4888892;29;20396;-83
2023/03/25 04:13:10;;;;;;;4.20;1.40;;;;;;;8.56;100.00;99898.31;4903297;29;20024;-84
2023/03/25 04:15:37;;;;;;;14.20;2.88;;;;;;;8.57;100.00;99898.19;4898229;29;20384;-84
2023/03/25 04:18:03;;;;;;;17.52;2.03;;;;;;;8.57;100.00;99897.31;4897676;29;20087;-85
2023/03/25 04:20:33;;;;;;;9.02;1.55;;;;;;;8.46;100.00;99880.03;4896970;29;20048;-84
2023/03/25 04:22:59;;;;;;;9.50;1.60;;;;;;;8.59;100.00;99903.50;4868928;29;20028;-83
2023/03/25 04:25:25;;;;;;;12.45;2.08;;;;;;;8.57;100.00;99897.31;4883197;29;20055;-84
2023/03/25 04:27:52;;;;;;;13.75;2.00;;;;;;;8.55;100.00;99902.91;4881659;29;20400;-83
2023/03/25 04:30:18;;;;;;;14.82;1.92;;;;;;;8.55;100.00;99900.19;4868114;29;20409;-83
2023/03/25 04:32:46;;;;;;;11.13;1.48;;;;;;;8.53;100.00;99884.97;4902062;29;20028;-84
2023/03/25 04:35:17;;;;;;;12.18;2.17;;;;;;;8.60;100.00;99895.19;4901853;29;20103;-83
2023/03/25 04:37:47;;;;;;;9.02;2.10;;;;;;;8.59;100.00;99892.59;4885866;29;20487;-84
2023/03/25 04:40:17;;;;;;;8.00;1.63;;;;;;;8.61;100.00;99893.34;4882623;29;20044;-84
2023/03/25 04:42:46;;;;;;;11.52;1.52;;;;;;;8.56;100.00;99882.81;4885471;29;20032;-84
2023/03/25 04:45:15;;;;;;;10.23;1.50;;;;;;;8.53;100.00;99880.34;4895144;29;20479;-82
2023/03/25 04:47:45;;;;;;;7.10;1.00;;;;;;;8.67;100.00;99902.84;4901168;29;20112;-82
2023/03/25 04:50:24;;;;;;;9.88;1.35;;;;;;;8.71;100.00;99909.78;4886023;29;20040;-82
2023/03/25 04:52:52;;;;;;;8.55;1.38;;;;;;;8.66;100.00;99899.25;4901026;29;20491;-82
2023/03/25 04:55:19;;;;;;;6.72;1.58;;;;;;;8.67;100.00;99906.44;4918701;29;20036;-83
2023/03/25 04:57:49;;;;;;;8.95;1.60;;;;;;;8.56;100.00;99904.66;4885420;29;20032;-82
2023/03/25 05:00:18;;;;;;;6.22;1.33;;;;;;;8.46;100.00;99909.16;4884934;29;20036;-82
2023/03/25 05:02:54;;;;;;;14.50;1.80;;;;;;;8.41;100.00;99905.91;4899733;29;20391;-83
2023/03/25 05:05:23;;;;;;;12.10;1.63;;;;;;;8.36;100.00;99878.19;4901577;29;20381;-83
2023/03/25 05:07:52;;;;;;;7.95;1.25;;;;;;;8.46;100.00;99907.31;4907580;29;20040;-82
2023/03/25 05:10:23;;;;;;;10.65;1.55;;;;;;;8.50;100.00;99907.03;4913480;29;20035;-83
2023/03/25 05:12:49;;;;;;;11.85;1.60;;;;;;;8.40;100.00;99902.34;4900727;29;20055;-83
2023/03/25 05:15:18;;;;;;;8.80;1.30;;;;;;;8.42;100.00;99896.75;4917760;29;20111;-83
2023/03/25 05:17:45;;;;;;;12.15;1.58;;;;;;;8.42;100.00;99883.97;4869307;29;20035;-83
2023/03/25 05:20:12;;;;;;;12.00;1.20;;;;;;;8.42;100.00;99902.22;4852673;29;20036;-83
2023/03/25 05:22:38;;;;;;;10.38;1.33;;;;;;;8.37;100.00;99885.38;4884629;29;20036;-83
2023/03/25 05:25:08;;;;;;;6.07;1.45;;;;;;;8.43;100.00;99893.06;4901190;29;20049;-83
2023/03/25 05:27:35;;;;;;;12.93;1.77;;;;;;;8.41;100.00;99904.06;4881767;29;20041;-83
2023/03/25 05:30:01;;;;;;;13.18;1.40;;;;;;;8.35;100.00;99890.97;4905085;29;20099;-83
2023/03/25 05:32:34;;;;;;;7.25;1.10;;;;;;;8.36;100.00;99887.25;4900906;29;20132;-83
2023/03/25 05:35:03;;;;;;;9.90;1.75;;;;;;;8.39;100.00;99914.22;4867226;29;20127;-83
2023/03/25 05:37:29;;;;;;;6.95;1.33;;;;;;;8.40;100.00;99888.69;4885180;29;20071;-83
2023/03/25 05:39:55;;;;;;;7.07;1.60;;;;;;;8.50;100.00;99899.72;4888040;29;20405;-83
2023/03/25 05:42:21;;;;;;;9.90;1.73;;;;;;;8.52;100.00;99908.63;4870566;29;20039;-82
2023/03/25 05:44:52;;;;;;;8.27;1.58;;;;;;;8.57;100.00;99917.28;4885325;29;20040;-83
2023/03/25 05:47:22;;;;;;;10.52;1.80;;;;;;;8.51;100.00;99908.75;4901309;29;20133;-84
2023/03/25 05:49:49;;;;;;;7.00;1.60;;;;;;;8.42;100.00;99913.13;4912891;29;20071;-85
2023/03/25 05:52:16;;;;;;;9.32;1.90;;;;;;;8.55;100.00;99905.63;4870502;29;20092;-84
2023/03/25 05:54:44;;;;;;;2.50;0.80;;;;;;;8.51;100.00;99900.56;4886075;29;20044;-84
2023/03/25 05:57:09;;;;;;;7.60;1.67;;;;;;;8.54;100.00;99900.31;4889558;29;20063;-83
2023/03/25 05:59:39;;;;;;;11.77;1.67;;;;;;;8.64;100.00;99910.31;4872873;29;20063;-83
2023/03/25 06:02:07;;;;;;;7.72;1.60;;;;;;;8.61;100.00;99907.00;4921102;29;20088;-82
2023/03/25 06:04:36;;;;;;;8.80;1.58;;;;;;;8.75;100.00;99922.16;4904317;29;20036;-82
2023/03/25 06:07:07;;;;;;;2.55;1.27;;;;;;;8.65;100.00;99925.66;4874163;29;20092;-82
2023/03/25 06:09:34;;;;;;;6.25;1.10;;;;;;;8.75;100.00;99927.63;4882949;29;20539;-81
2023/03/25 06:12:00;;;;;;;7.97;1.63;;;;;;;8.72;100.00;99931.47;4899570;29;20352;-81
2023/03/25 06:14:26;;;;;;;10.98;1.75;;;;;;;8.78;100.00;99930.09;4912957;29;20044;-83
2023/03/25 06:16:51;;;;;;;11.10;1.52;;;;;;;8.77;100.00;99925.59;4888123;29;20095;-83
2023/03/25 06:19:17;;;;;;;6.78;1.20;;;;;;;8.77;100.00;99929.22;4885804;29;20048;-83
2023/03/25 06:21:42;;;;;;;12.13;1.40;;;;;;;8.88;100.00;99935.59;4870207;29;20119;-84
2023/03/25 06:24:08;;;;;;;6.35;1.20;;;;;;;8.73;100.00;99929.63;4903303;29;20048;-83
2023/03/25 06:26:33;;;;;;;5.72;1.00;;;;;;;8.77;100.00;99931.06;4873968;29;20146;-85
2023/03/25 06:28:59;;;;;;;6.43;1.85;;;;;;;8.84;100.00;99943.19;4873160;29;20059;-84
2023/03/25 06:31:32;;;;;;;19.90;1.88;;;;;;;8.88;100.00;99935.59;4920617;29;20495;-83
2023/03/25 06:33:57;;;;;;;6.57;1.10;;;;;;;8.66;100.00;99915.63;4888927;29;20040;-84
2023/03/25 06:36:24;;;;;;;7.97;1.45;;;;;;;8.75;100.00;99935.81;4872950;29;20126;-83
2023/03/25 06:38:50;;;;;;;10.35;1.42;;;;;;;8.61;100.00;99915.19;4888716;29;20036;-84
2023/03/25 06:41:19;;;;;;;7.65;1.05;;;;;;;8.78;100.00;99951.91;4889179;29;20040;-85
2023/03/25 06:43:45;;;;;;;8.27;1.10;;;;;;;8.72;100.00;99933.34;4903665;29;20040;-85
2023/03/25 06:46:11;;;;;;;13.77;1.27;;;;;;;8.80;100.00;99956.22;4867139;29;20040;-84
2023/03/25 06:48:37;;;;;;;14.68;1.77;;;;;;;8.82;100.00;99942.44;4888294;29;20044;-84
2023/03/25 06:51:03;;;;;;;8.18;1.40;;;;;;;8.82;100.00;99947.91;4859705;29;20048;-84
2023/03/25 06:53:29;;;;;;;6.80;1.65;;;;;;;8.98;100.00;99970.13;4895508;29;20389;-85
2023/03/25 06:55:58;;;;;;;12.35;1.67;;;;;;;8.87;100.00;99962.03;4857109;29;20048;-84
2023/03/25 06:58:24;;;;;;;11.25;1.33;;;;;;;9.00;100.00;99964.56;4920992;29;20484;-84
2023/03/25 07:00:55;;;;;;;15.35;1.48;;;;;;;9.05;100.00;99948.66;4889614;29;20035;-82
2023/03/25 07:03:21;;;;;;;7.72;1.42;;;;;;;9.04;100.00;99954.25;4857648;29;20033;-86
2023/03/25 07:05:47;;;;;;;11.98;1.63;;;;;;;9.16;100.00;99955.91;4873053;29;20047;-84
2023/03/25 07:08:14;;;;;;;6.43;1.92;;;;;;;9.16;100.00;99951.28;4901806;29;20470;-86
2023/03/25 07:10:39;;;;;;;12.27;1.40;;;;;;;9.33;100.00;99944.34;4888445;29;20071;-82
2023/03/25 07:13:05;;;;;;;12.75;1.10;;;;;;;9.35;100.00;99971.53;4890992;29;20040;-85
2023/03/25 07:15:30;;;;;;;19.13;2.65;;;;;;;9.25;100.00;99959.66;4871212;29;20042;-86
2023/03/25 07:17:56;;;;;;;9.60;1.20;;;;;;;9.16;100.00;99966.81;4892199;29;20149;-88
2023/03/25 07:20:21;;;;;;;13.60;1.65;;;;;;;9.16;100.00;99943.09;4874033;29;20035;-83
2023/03/25 07:22:47;;;;;;;16.70;1.63;;;;;;;9.24;100.00;99953.34;4894750;29;20400;-86
2023/03/25 07:25:12;;;;;;;9.88;1.27;;;;;;;9.15;100.00;99943.22;4870539;29;20040;-85
2023/03/25 07:27:39;;;;;;;15.35;1.10;;;;;;;9.37;100.00;99964.91;4883261;29;20074;-83
2023/03/25 07:30:05;;;;;;;16.92;1.25;;;;;;;9.35;100.00;99953.28;4868808;29;20039;-82
2023/03/25 07:32:31;;;;;;;16.70;1.30;;;;;;;9.25;100.00;99946.91;4879622;29;20044;-80
2023/03/25 07:34:56;;;;;;;15.10;1.10;;;;;;;9.43;100.00;99957.16;4883409;29;20104;-86
2023/03/25 07:37:22;;;;;;;16.38;1.50;;;;;;;9.59;100.00;99970.34;4884204;29;20039;-84
2023/03/25 07:39:47;;;;;;;10.63;2.17;;;;;;;9.73;100.00;99973.56;4882293;29;20171;-83
2023/03/25 07:42:13;;;;;;;7.28;1.33;;;;;;;9.94;100.00;99964.44;4899982;29;20408;-89
2023/03/25 07:44:39;;;;;;;13.60;1.25;;;;;;;10.34;100.00;99988.16;4904047;29;20036;-88
2023/03/25 07:47:05;;;;;;;10.93;1.27;;;;;;;10.40;100.00;99957.50;4914622;29;20008;-87
2023/03/25 07:49:30;;;;;;;15.70;2.28;;;;;;;10.16;100.00;99970.69;4889961;29;20052;-88
2023/03/25 07:51:56;;;;;;;19.08;1.52;;;;;;;9.80;100.00;99959.34;4911917;29;20033;-89
2023/03/25 07:54:23;;;;;;;11.45;1.63;;;;;;;9.75;100.00;99967.97;4904233;29;20047;-88
2023/03/25 07:56:51;;;;;;;15.27;1.27;;;;;;;9.53;100.00;99947.19;4877574;29;20064;-87
2023/03/25 07:59:17;;;;;;;9.38;0.93;;;;;;;9.64;100.00;99977.16;4889122;29;20036;-86
2023/03/25 08:01:42;;;;;;;18.95;1.85;;;;;;;9.72;100.00;99974.59;4882654;29;20057;-88
2023/03/25 08:04:12;;;;;;;13.00;1.85;;;;;;;9.57;100.00;99951.34;4903306;29;20392;-86
2023/03/25 08:06:41;;;;;;;16.73;1.92;;;;;;;9.35;100.00;99938.75;4909127;29;20028;-86
2023/03/25 08:09:09;;;;;;;12.73;2.10;;;;;;;9.40;100.00;99979.34;4899681;29;20040;-89
2023/03/25 08:11:36;;;;;;;10.05;1.55;;;;;;;9.45;100.00;99979.78;4929135;29;20404;-86
2023/03/25 08:14:02;;;;;;;16.63;1.85;;;;;;;9.25;100.00;99959.66;4903279;29;20032;-87
2023/03/25 08:16:28;;;;;;;15.48;1.58;;;;;;;9.29;100.00;99972.94;4914181;29;20095;-85
2023/03/25 08:18:55;;;;;;;19.98;2.60;;;;;;;9.35;100.00;99960.59;4910118;29;20123;-89
2023/03/25 08:21:23;;;;;;;16.75;1.92;;;;;;;9.46;100.00;99967.84;4895480;29;20060;-90
2023/03/25 08:23:51;;;;;;;14.13;1.88;;;;;;;9.87;100.00;100004.25;4895986;29;20067;-90
2023/03/25 08:26:16;;;;;;;17.42;1.60;;;;;;;9.94;100.00;100008.19;4895562;29;20503;-88
2023/03/25 08:28:42;;;;;;;14.90;1.42;;;;;;;9.74;100.00;99986.25;4909424;29;20040;-90
2023/03/25 08:31:08;;;;;;;12.85;1.58;;;;;;;9.91;100.00;100012.06;4877676;29;20046;-90
2023/03/25 08:33:39;;;;;;;7.53;0.88;;;;;;;9.55;100.00;99991.63;4895244;29;20039;-87
2023/03/25 08:36:06;;;;;;;23.00;3.13;;;;;;;9.50;100.00;100018.50;4907359;29;20096;-87
2023/03/25 08:38:31;;;;;;;24.08;2.30;;;;;;;9.38;100.00;99996.72;4887998;29;20036;-86
2023/03/25 08:40:58;;;;;;;14.10;2.15;;;;;;;9.09;100.00;99982.88;4905067;29;20036;-87
2023/03/25 08:43:26;;;;;;;21.13;1.70;;;;;;;8.95;100.00;99975.91;4907268;29;20064;-88
2023/03/25 08:45:52;;;;;;;13.98;2.95;;;;;;;9.07;100.00;99981.25;4875045;29;20051;-87
2023/03/25 08:48:17;;;;;;;15.02;1.85;;;;;;;9.04;100.00;99990.59;4889716;29;20043;-88
2023/03/25 08:50:43;;;;;;;21.40;2.20;;;;;;;9.37;100.00;100025.03;4886640;29;20050;-89
2023/03/25 08:53:09;;;;;;;28.73;2.67;;;;;;;9.41;100.00;100013.81;4892857;29;20035;-87
2023/03/25 08:55:36;;;;;;;20.30;2.30;;;;;;;9.10;100.00;99984.63;4892645;29;20051;-86
2023/03/25 08:58:03;;;;;;;22.90;2.35;;;;;;;9.09;100.00;99993.81;4891044;29;20036;-85
2023/03/25 09:00:29;;;;;;;16.88;2.00;;;;;;;9.01;100.00;99989.00;4919990;29;20034;-85
2023/03/25 09:02:57;;;;;;;16.55;2.20;;;;;;;9.12;100.00;100020.00;4888404;29;20456;-85
2023/03/25 09:05:23;;;;;;;13.30;1.50;;;;;;;9.46;100.00;100027.94;4905248;29;20462;-85
2023/03/25 09:07:49;;;;;;;13.00;1.90;;;;;;;9.51;100.00;100022.94;4905192;29;20141;-85
2023/03/25 09:10:14;;;;;;;15.93;1.85;;;;;;;9.46;100.00;100003.34;4882959;29;20019;-86
2023/03/25 09:12:40;;;;;;;19.55;2.35;;;;;;;9.56;100.00;99991.47;4871617;29;20112;-88
2023/03/25 09:15:07;;;;;;;21.85;1.95;;;;;;;9.79;100.00;100009.56;4904612;29;20032;-85
2023/03/25 09:17:32;;;;;;;19.67;1.77;;;;;;;10.42;100.00;99996.53;4873675;29;20036;-88
2023/03/25 09:19:58;;;;;;;25.88;3.03;;;;;;;10.52;100.00;100017.56;4887453;29;20036;-87
2023/03/25 09:22:23;;;;;;;17.63;1.90;;;;;;;10.04;100.00;100003.59;4872968;29;20050;-87
2023/03/25 09:24:49;;;;;;;14.98;1.65;;;;;;;9.64;100.00;100020.88;4904929;29;20036;-87
2023/03/25 09:27:14;;;;;;;22.95;2.63;;;;;;;9.97;100.00;100027.06;4905035;29;20048;-88
2023/03/25 09:29:40;;;;;;;20.13;3.05;;;;;;;9.52;100.00;100002.81;4908334;29;20044;-87
2023/03/25 09:32:06;;;;;;;16.50;2.30;;;;;;;9.42;100.00;100010.09;4909746;29;20089;-87
2023/03/25 09:34:31;;;;;;;16.80;2.65;;;;;;;9.56;100.00;100023.41;4912341;29;20073;-87
2023/03/25 09:36:57;;;;;;;23.00;2.45;;;;;;;9.44;100.00;100011.69;4926833;29;20047;-87
2023/03/25 09:39:22;;;;;;;22.38;2.75;;;;;;;9.98;100.00;99995.94;4881554;29;20077;-79
2023/03/25 09:42:12;;;;;;;21.52;2.38;;;;;;;9.93;100.00;100018.25;4903816;29;20032;-78
2023/03/25 09:44:53;;;;;;;16.70;1.60;;;;;;;9.82;100.00;100022.94;4932189;29;20095;-77
2023/03/25 09:47:22;;;;;;;13.05;2.40;;;;;;;10.04;100.00;100030.97;4941178;29;20035;-76
2023/03/25 09:49:52;;;;;;;14.98;1.60;;;;;;;9.90;100.00;100037.69;4935942;29;20048;-76
2023/03/25 09:52:42;;;;;;;19.13;1.98;;;;;;;9.91;100.00;100033.06;4940588;29;20028;-77
2023/03/25 09:55:15;;;;;;;15.63;1.65;;;;;;;9.78;100.00;100036.03;4906673;29;20039;-77
2023/03/25 09:57:53;;;;;;;25.98;2.67;;;;;;;9.82;100.00;100050.28;4920987;29;20035;-77
2023/03/25 10:00:23;;;;;;;22.73;2.13;;;;;;;9.69;100.00;100058.72;4924168;29;20032;-77
2023/03/25 10:02:58;;;;;;;16.50;2.22;;;;;;;9.83;100.00;100049.28;4919294;29;20111;-77
2023/03/25 10:05:57;;;;;;;18.15;1.90;;;;;;;9.71;100.00;100043.06;4922965;29;20051;-77
2023/03/25 10:08:33;;;;;;;14.07;1.40;;;;;;;9.67;100.00;100063.44;4942532;29;20046;-77
2023/03/25 10:11:35;;;;;;;13.98;0.98;;;;;;;9.48;100.00;100047.81;4954294;29;20044;-78
2023/03/25 10:14:12;;;;;;;9.07;1.05;;;;;;;9.29;100.00;100059.47;4935635;29;20111;-77
2023/03/25 10:16:52;;;;;;;16.98;1.58;;;;;;;9.44;100.00;100063.59;4923309;29;20556;-79
2023/03/25 10:19:41;;;;;;;12.63;1.42;;;;;;;9.53;100.00;100056.47;4920450;29;20032;-78
2023/03/25 10:22:10;;;;;;;14.77;2.53;;;;;;;9.57;100.00;100069.75;4936318;29;20044;-76
2023/03/25 10:24:45;;;;;;;9.90;1.35;;;;;;;10.79;100.00;100052.44;4919906;29;20032;-77
2023/03/25 10:27:22;;;;;;;19.02;2.60;;;;;;;11.24;100.00;100060.09;4922715;29;20055;-77
2023/03/25 10:30:06;;;;;;;13.88;1.88;;;;;;;10.92;100.00;100047.59;4916868;29;20059;-77
2023/03/25 10:32:55;;;;;;;14.77;1.92;;;;;;;11.25;100.00;100060.97;4932200;29;20036;-77
2023/03/25 10:35:36;;;;;;;23.50;2.17;;;;;;;10.90;100.00;100048.72;4918665;29;20042;-77
2023/03/25 10:38:06;;;;;;;11.63;1.67;;;;;;;11.26;100.00;100057.22;4916294;29;20071;-78
2023/03/25 10:40:50;;;;;;;6.18;1.67;;;;;;;11.22;100.00;100052.03;4905981;29;20047;-78
2023/03/25 10:43:26;;;;;;;16.25;2.10;;;;;;;11.68;100.00;100054.13;4927488;29;20051;-78
2023/03/25 10:45:59;;;;;;;20.60;2.03;;;;;;;12.32;100.00;100049.69;4915609;29;20020;-78
2023/03/25 10:48:27;;;;;;;21.65;3.50;;;;;;;12.27;100.00;100049.28;4903086;29;20047;-78
2023/03/25 10:51:12;;;;;;;17.65;2.50;;;;;;;12.75;100.00;100039.88;4903869;29;20064;-79
2023/03/25 10:53:40;;;;;;;17.63;2.00;;;;;;;12.74;100.00;100040.03;4906948;29;20103;-79
2023/03/25 10:56:16;;;;;;;15.95;2.42;;;;;;;13.20;100.00;100030.69;4935888;29;20044;-79
2023/03/25 10:58:46;;;;;;;13.65;1.85;;;;;;;12.26;100.00;100053.91;4919047;29;20032;-79
2023/03/25 11:01:18;;;;;;;17.77;1.85;;;;;;;12.19;100.00;100052.78;4895893;29;20028;-79
2023/03/25 11:03:48;;;;;;;25.83;2.88;;;;;;;12.57;100.00;100050.84;4903078;29;20036;-78
2023/03/25 11:06:29;;;;;;;19.67;2.25;;;;;;;13.09;100.00;100041.06;4942211;29;20047;-79
2023/03/25 11:09:06;;;;;;;17.00;2.45;;;;;;;13.17;100.00;100061.22;5057928;23;20059;-79
2023/03/25 11:11:33;;;;;;;20.48;2.13;;;;;;;13.33;100.00;100048.66;4944647;29;20052;-80
2023/03/25 11:13:59;;;;;;;12.30;2.47;;;;;;;12.87;100.00;100062.47;4927407;29;20045;-78
2023/03/25 11:16:25;;;;;;;10.57;1.55;;;;;;;12.76;100.00;100060.84;4976426;29;20102;-80
2023/03/25 11:18:52;;;;;;;13.15;1.60;;;;;;;12.49;100.00;100064.47;4935788;29;20067;-78
2023/03/25 11:21:18;;;;;;;17.63;1.67;;;;;;;12.59;100.00;100073.53;4914679;29;20031;-79
2023/03/25 11:23:46;;;;;;;19.23;2.10;;;;;;;12.56;100.00;100072.97;4909125;29;20044;-79
2023/03/25 11:26:22;;;;;;;17.38;2.00;;;;;;;12.67;100.00;100062.66;4943050;29;20047;-79
2023/03/25 11:28:51;;;;;;;9.88;2.00;;;;;;;12.27;100.00;100063.03;4929128;29;20065;-78
2023/03/25 11:31:19;;;;;;;18.02;2.20;;;;;;;12.29;100.00;100061.84;4968600;29;20108;-80
2023/03/25 11:34:02;;;;;;;18.83;2.58;;;;;;;12.03;100.00;100064.41;4921215;29;20035;-79
2023/03/25 11:36:30;;;;;;;14.35;1.65;;;;;;;12.21;100.00;100064.47;4913721;29;20028;-79
2023/03/25 11:39:15;;;;;;;15.57;1.60;;;;;;;12.00;100.00;100074.81;4941800;29;20505;-78
2023/03/25 11:41:40;;;;;;;10.63;1.15;;;;;;;12.08;100.00;100058.47;4953607;29;20085;-79